Time;durP1;ratioP1;P1;durP2;ratioP2;P2;SDS_P1;SDS_P2;PMS_P1;PMS_P2;Temp;Humidity;BMP_temperature;BMP_pressure;BME280_temperature;BME280_humidity;BME280_pressure;Samples;Min_cycle;Max_cycle;Signal;HPM_P1;HPM_P2
2024/04/06 00:00:08;;;;;;;3.73;2.30;;;13.80;99.90;;;;;;5094184;28;20554;-60
2024/04/06 00:02:35;;;;;;;6.40;1.97;;;13.80;99.90;;;;;;5093241;28;21029;-59
2024/04/06 00:05:01;;;;;;;3.03;2.00;;;13.70;99.90;;;;;;5093934;28;20453;-59
2024/04/06 00:07:29;;;;;;;2.20;2.00;;;13.70;99.90;;;;;;5094797;28;20488;-59
2024/04/06 00:09:55;;;;;;;2.33;1.83;;;13.60;99.90;;;;;;5095210;28;20577;-59
2024/04/06 00:12:21;;;;;;;3.53;1.83;;;13.60;99.90;;;;;;5094768;28;20541;-59
2024/04/06 00:14:47;;;;;;;2.60;2.17;;;13.50;99.90;;;;;;5093429;28;20226;-60
2024/04/06 00:17:14;;;;;;;2.50;1.90;;;13.50;99.90;;;;;;5093488;28;20979;-59
2024/04/06 00:19:40;;;;;;;2.93;2.10;;;13.40;99.90;;;;;;5093311;28;20521;-60
2024/04/06 00:22:06;;;;;;;3.20;2.13;;;13.40;99.90;;;;;;5093267;28;20466;-59
2024/04/06 00:24:34;;;;;;;3.00;2.00;;;13.40;99.90;;;;;;5093090;28;20265;-59
2024/04/06 00:27:01;;;;;;;2.90;1.70;;;13.40;99.90;;;;;;5093180;28;20434;-62
2024/04/06 00:29:27;;;;;;;2.70;1.90;;;13.50;99.90;;;;;;5095636;28;20533;-61
2024/04/06 00:31:53;;;;;;;3.80;2.20;;;13.50;99.90;;;;;;5097258;28;20549;-60
2024/04/06 00:34:19;;;;;;;2.63;2.10;;;13.50;99.90;;;;;;5097146;28;20222;-60
2024/04/06 00:36:46;;;;;;;2.20;2.00;;;13.50;99.90;;;;;;5096967;28;20955;-60
2024/04/06 00:39:12;;;;;;;4.27;2.60;;;13.50;99.90;;;;;;5096858;28;20202;-60
2024/04/06 00:41:40;;;;;;;5.03;2.20;;;13.50;99.90;;;;;;5096885;28;20541;-61
2024/04/06 00:44:07;;;;;;;2.70;2.20;;;13.50;99.90;;;;;;5096872;28;20200;-61
2024/04/06 00:46:33;;;;;;;3.00;1.90;;;13.50;99.90;;;;;;5096880;28;20441;-60
2024/04/06 00:48:59;;;;;;;3.10;1.90;;;13.40;99.90;;;;;;5096948;28;20445;-60
2024/04/06 00:51:26;;;;;;;3.93;2.40;;;13.40;99.90;;;;;;5102793;28;20462;-61
2024/04/06 00:53:52;;;;;;;3.80;2.03;;;13.40;99.90;;;;;;5101279;28;20204;-60
2024/04/06 00:56:19;;;;;;;6.27;2.00;;;13.40;99.90;;;;;;5096697;28;20983;-60
2024/04/06 00:58:46;;;;;;;2.97;1.93;;;13.40;99.90;;;;;;5096723;28;20442;-60
2024/04/06 01:01:13;;;;;;;2.60;2.00;;;13.30;99.90;;;;;;5096557;28;20485;-61
2024/04/06 01:03:39;;;;;;;5.67;2.50;;;13.30;99.90;;;;;;5096698;28;20422;-61
2024/04/06 01:06:06;;;;;;;6.03;2.50;;;13.20;99.90;;;;;;5096616;28;20464;-60
2024/04/06 01:08:32;;;;;;;3.23;2.03;;;13.20;99.90;;;;;;5096591;28;20201;-60
2024/04/06 01:11:00;;;;;;;6.03;2.30;;;13.10;99.90;;;;;;5096510;28;20491;-61
2024/04/06 01:13:26;;;;;;;3.40;2.30;;;13.10;99.90;;;;;;5100688;28;20438;-60
2024/04/06 01:15:54;;;;;;;2.77;2.00;;;13.00;99.90;;;;;;5105080;28;20480;-61
2024/04/06 01:18:19;;;;;;;3.40;2.40;;;13.00;99.90;;;;;;5107277;28;20203;-62
2024/04/06 01:20:47;;;;;;;5.00;2.30;;;13.00;99.90;;;;;;5103980;28;20466;-60
2024/04/06 01:23:13;;;;;;;2.23;2.00;;;13.00;99.90;;;;;;5105964;28;20224;-61
2024/04/06 01:25:41;;;;;;;2.10;1.90;;;12.90;99.90;;;;;;5100684;28;20541;-60
2024/04/06 01:28:07;;;;;;;3.30;2.40;;;12.90;99.90;;;;;;5097354;28;20895;-60
2024/04/06 01:30:34;;;;;;;4.10;2.47;;;12.90;99.90;;;;;;5096141;28;20442;-60
2024/04/06 01:32:59;;;;;;;3.10;2.00;;;12.90;99.90;;;;;;5095914;28;20226;-61
2024/04/06 01:35:26;;;;;;;2.97;2.23;;;12.90;99.90;;;;;;5095507;28;20442;-60
2024/04/06 01:37:52;;;;;;;2.60;2.10;;;12.80;99.90;;;;;;5095529;28;20670;-60
2024/04/06 01:40:19;;;;;;;2.20;2.00;;;12.70;99.90;;;;;;5095713;28;20512;-60
2024/04/06 01:42:46;;;;;;;3.30;2.20;;;12.70;99.90;;;;;;5095766;28;20230;-60
2024/04/06 01:45:13;;;;;;;4.50;2.30;;;12.70;99.90;;;;;;5096082;28;20465;-60
2024/04/06 01:47:39;;;;;;;3.13;2.27;;;12.60;99.90;;;;;;5095877;28;20457;-60
2024/04/06 01:50:08;;;;;;;2.77;2.50;;;12.70;99.90;;;;;;5095592;28;20959;-60
2024/04/06 01:52:34;;;;;;;4.87;2.57;;;12.70;99.90;;;;;;5095460;28;20224;-60
2024/04/06 01:55:01;;;;;;;4.57;2.20;;;12.70;99.90;;;;;;5095933;28;20800;-61
2024/04/06 01:57:27;;;;;;;4.30;2.60;;;12.70;99.90;;;;;;5095280;28;20588;-60
2024/04/06 01:59:55;;;;;;;3.23;2.23;;;12.70;99.90;;;;;;5096268;28;20439;-61
2024/04/06 02:02:21;;;;;;;2.80;2.10;;;12.70;99.90;;;;;;5119053;22;20220;-62
2024/04/06 02:04:48;;;;;;;4.87;2.53;;;12.70;99.90;;;;;;5095451;28;20445;-62
2024/04/06 02:07:14;;;;;;;4.00;2.67;;;12.60;99.90;;;;;;5095483;28;20196;-62
2024/04/06 02:09:40;;;;;;;4.20;2.30;;;12.60;99.90;;;;;;5095648;28;20441;-62
2024/04/06 02:12:08;;;;;;;4.10;2.40;;;12.60;99.90;;;;;;5095562;28;20468;-62
2024/04/06 02:14:34;;;;;;;5.80;2.60;;;12.60;99.90;;;;;;5095370;28;20466;-62
2024/04/06 02:17:03;;;;;;;2.53;1.97;;;12.60;99.90;;;;;;5095486;28;20481;-62
2024/04/06 02:19:30;;;;;;;3.13;2.30;;;12.60;99.90;;;;;;5095841;28;20445;-62
2024/04/06 02:21:55;;;;;;;2.73;2.20;;;12.60;99.90;;;;;;5094873;28;20462;-61
2024/04/06 02:24:22;;;;;;;2.60;2.33;;;12.60;99.90;;;;;;5095450;28;20449;-62
2024/04/06 02:26:48;;;;;;;2.80;2.00;;;12.60;99.90;;;;;;5095953;28;20200;-62
2024/04/06 02:29:15;;;;;;;2.73;1.63;;;12.60;99.90;;;;;;5096083;28;20434;-61
2024/04/06 02:31:42;;;;;;;2.43;1.90;;;12.60;99.90;;;;;;5095406;28;20475;-62
2024/04/06 02:34:10;;;;;;;2.57;1.53;;;12.60;99.90;;;;;;5095460;28;20466;-61
2024/04/06 02:36:36;;;;;;;3.90;2.37;;;12.50;99.90;;;;;;5094910;28;20478;-61
2024/04/06 02:39:03;;;;;;;5.33;2.40;;;12.50;99.90;;;;;;5094436;28;20788;-61
2024/04/06 02:41:29;;;;;;;4.70;2.10;;;12.50;99.90;;;;;;5095482;28;20839;-62
2024/04/06 02:43:56;;;;;;;4.37;2.33;;;12.50;99.90;;;;;;5094417;28;20530;-61
2024/04/06 02:46:22;;;;;;;3.57;2.40;;;12.40;99.90;;;;;;5094467;28;20430;-61
2024/04/06 02:48:49;;;;;;;3.33;1.90;;;12.40;99.90;;;;;;5094556;28;20876;-61
2024/04/06 02:51:16;;;;;;;2.80;1.87;;;12.40;99.90;;;;;;5094512;28;20201;-63
2024/04/06 02:53:43;;;;;;;2.20;2.00;;;12.40;99.90;;;;;;5094251;28;20478;-61
2024/04/06 02:56:09;;;;;;;2.67;2.10;;;12.40;99.90;;;;;;5094993;28;20473;-62
2024/04/06 02:58:36;;;;;;;3.63;2.20;;;12.40;99.90;;;;;;5094783;28;20445;-61
2024/04/06 03:01:01;;;;;;;3.10;2.03;;;12.40;99.90;;;;;;5094620;28;20207;-61
2024/04/06 03:03:28;;;;;;;2.53;2.30;;;12.50;99.90;;;;;;5094190;28;20473;-62
2024/04/06 03:05:54;;;;;;;4.40;2.40;;;12.50;99.90;;;;;;5094274;28;20443;-61
2024/04/06 03:08:22;;;;;;;5.93;2.60;;;12.50;99.90;;;;;;5093894;28;20519;-61
2024/04/06 03:10:48;;;;;;;3.30;2.37;;;12.50;99.90;;;;;;5094509;28;20208;-61
2024/04/06 03:13:15;;;;;;;3.70;2.37;;;12.50;99.90;;;;;;5094221;28;20905;-61
2024/04/06 03:15:41;;;;;;;2.40;1.70;;;12.60;99.90;;;;;;5093732;28;20662;-61
2024/04/06 03:18:07;;;;;;;5.40;2.43;;;12.60;99.90;;;;;;5094404;28;20453;-61
2024/04/06 03:20:33;;;;;;;3.10;1.70;;;12.60;99.90;;;;;;5094424;28;20206;-61
2024/04/06 03:23:02;;;;;;;5.67;2.10;;;12.60;99.90;;;;;;5094058;28;20453;-61
2024/04/06 03:25:30;;;;;;;2.37;2.17;;;12.60;99.90;;;;;;5093726;28;20207;-61
2024/04/06 03:27:57;;;;;;;2.23;2.03;;;12.60;99.90;;;;;;5093396;28;21049;-61
2024/04/06 03:30:24;;;;;;;2.57;2.20;;;12.50;99.90;;;;;;5093984;28;20530;-61
2024/04/06 03:32:51;;;;;;;2.50;2.13;;;12.50;99.90;;;;;;5093489;28;20450;-62
2024/04/06 03:35:17;;;;;;;2.67;2.23;;;12.50;99.90;;;;;;5093888;28;20461;-62
2024/04/06 03:37:46;;;;;;;4.00;2.30;;;12.50;99.90;;;;;;5093884;28;20466;-62
2024/04/06 03:40:14;;;;;;;4.70;2.00;;;12.50;99.90;;;;;;5093584;28;20438;-62
2024/04/06 03:42:42;;;;;;;2.73;2.00;;;12.50;99.90;;;;;;5093157;28;20505;-62
2024/04/06 03:45:10;;;;;;;3.93;1.73;;;12.50;99.90;;;;;;5093507;28;20442;-62
2024/04/06 03:47:37;;;;;;;1.90;1.80;;;12.50;99.90;;;;;;5093679;28;20468;-62
2024/04/06 03:50:03;;;;;;;3.10;2.03;;;12.40;99.90;;;;;;5093799;28;20438;-62
2024/04/06 03:52:30;;;;;;;2.43;1.60;;;12.40;99.90;;;;;;5093568;28;20497;-62
2024/04/06 03:54:56;;;;;;;5.70;2.60;;;12.40;99.90;;;;;;5093600;28;20441;-62
2024/04/06 03:57:22;;;;;;;4.40;2.10;;;12.50;99.90;;;;;;5093168;28;20496;-62
2024/04/06 03:59:51;;;;;;;3.73;2.20;;;12.50;99.90;;;;;;5093520;28;20204;-61
2024/04/06 04:02:17;;;;;;;6.10;2.27;;;12.50;99.90;;;;;;5092756;28;20991;-61
2024/04/06 04:04:43;;;;;;;3.03;2.10;;;12.50;99.90;;;;;;5093054;28;20529;-61
2024/04/06 04:07:09;;;;;;;2.80;2.13;;;12.50;99.90;;;;;;5094041;28;20192;-61
2024/04/06 04:09:36;;;;;;;3.30;1.97;;;12.60;99.90;;;;;;5093114;28;20819;-61
2024/04/06 04:13:31;;;;;;;2.83;2.10;;;12.60;99.90;;;;;;5090279;28;20614;-61
2024/04/06 04:15:58;;;;;;;3.23;2.33;;;12.70;99.90;;;;;;5090415;28;20945;-61
2024/04/06 04:18:24;;;;;;;3.97;2.30;;;12.70;99.90;;;;;;5090863;28;20450;-61
2024/04/06 04:20:50;;;;;;;2.10;1.90;;;12.70;99.90;;;;;;5090540;28;20928;-61
2024/04/06 04:23:17;;;;;;;2.60;2.40;;;12.70;99.90;;;;;;5090461;28;20469;-61
2024/04/06 04:25:43;;;;;;;4.53;1.97;;;12.70;99.90;;;;;;5090429;28;20826;-62
2024/04/06 04:28:10;;;;;;;3.00;2.17;;;12.70;99.90;;;;;;5090277;28;20436;-62
2024/04/06 04:30:37;;;;;;;5.70;3.30;;;12.60;99.90;;;;;;5090243;28;20199;-62
2024/04/06 04:33:04;;;;;;;4.50;2.30;;;12.60;99.90;;;;;;5089919;28;20474;-61
2024/04/06 04:35:30;;;;;;;4.43;3.23;;;12.60;99.90;;;;;;5090317;28;20445;-62
2024/04/06 04:37:57;;;;;;;4.17;1.93;;;12.60;99.90;;;;;;5090554;28;20447;-62
2024/04/06 04:40:22;;;;;;;2.50;2.30;;;12.70;99.90;;;;;;5090440;28;20442;-63
2024/04/06 04:42:49;;;;;;;2.93;2.20;;;12.70;99.90;;;;;;5090217;28;20972;-62
2024/04/06 04:45:15;;;;;;;2.77;1.93;;;12.70;99.90;;;;;;5090382;28;20204;-62
2024/04/06 04:47:43;;;;;;;2.30;2.10;;;12.70;99.90;;;;;;5090602;28;20940;-63
2024/04/06 04:50:09;;;;;;;2.73;1.97;;;12.70;99.90;;;;;;5090669;28;20653;-60
2024/04/06 04:52:37;;;;;;;8.43;2.57;;;12.70;99.90;;;;;;5089879;28;21075;-61
2024/04/06 04:55:03;;;;;;;4.17;2.23;;;12.70;99.90;;;;;;5091086;28;20442;-62
2024/04/06 04:57:30;;;;;;;7.00;2.90;;;12.70;99.90;;;;;;5090108;28;20525;-61
2024/04/06 04:59:57;;;;;;;4.40;2.50;;;12.80;99.90;;;;;;5090100;28;20446;-62
2024/04/06 05:02:24;;;;;;;3.20;2.47;;;12.80;99.90;;;;;;5090173;28;20455;-61
2024/04/06 05:04:51;;;;;;;7.83;2.83;;;12.80;99.90;;;;;;5090464;28;20951;-62
2024/04/06 05:07:19;;;;;;;4.30;2.73;;;12.80;99.90;;;;;;5089820;28;20434;-63
2024/04/06 05:09:46;;;;;;;4.33;3.57;;;12.90;99.90;;;;;;5090003;28;20439;-62
2024/04/06 05:12:13;;;;;;;2.40;2.20;;;12.80;99.90;;;;;;5089914;28;20873;-61
2024/04/06 05:14:39;;;;;;;3.60;2.57;;;12.90;99.90;;;;;;5090817;28;20445;-62
2024/04/06 05:17:06;;;;;;;3.43;2.00;;;12.90;99.90;;;;;;5090660;28;20442;-61
2024/04/06 05:19:32;;;;;;;4.83;2.57;;;12.90;99.90;;;;;;5091248;28;20893;-61
2024/04/06 05:22:00;;;;;;;2.87;1.80;;;12.90;99.90;;;;;;5091494;28;20480;-61
2024/04/06 05:24:26;;;;;;;4.10;2.27;;;13.00;99.90;;;;;;5079543;28;20439;-62
2024/04/06 05:26:53;;;;;;;2.23;2.03;;;12.90;99.90;;;;;;5076916;28;20885;-62
2024/04/06 05:29:19;;;;;;;3.10;2.40;;;13.00;99.90;;;;;;5077571;28;20529;-62
2024/04/06 05:31:46;;;;;;;4.97;2.23;;;13.00;99.90;;;;;;5077465;28;20559;-62
2024/04/06 05:34:12;;;;;;;3.17;1.97;;;13.00;99.90;;;;;;5077663;28;20200;-61
2024/04/06 05:36:39;;;;;;;2.33;2.13;;;13.10;99.90;;;;;;5076830;28;20526;-61
2024/04/06 05:39:06;;;;;;;3.23;2.27;;;13.10;99.90;;;;;;5076665;28;20513;-61
2024/04/06 05:41:33;;;;;;;2.20;1.97;;;13.20;99.90;;;;;;5078196;28;20455;-61
2024/04/06 05:44:00;;;;;;;2.70;2.00;;;13.20;99.90;;;;;;5078168;28;20465;-61
2024/04/06 05:46:27;;;;;;;2.87;2.27;;;13.20;99.90;;;;;;5075094;28;20484;-61
2024/04/06 05:48:53;;;;;;;3.60;2.17;;;13.30;99.90;;;;;;5075552;28;20811;-61
2024/04/06 05:51:19;;;;;;;3.53;1.63;;;13.30;99.90;;;;;;5075399;28;20447;-63
2024/04/06 05:53:46;;;;;;;3.73;1.70;;;13.30;99.90;;;;;;5075615;28;20212;-62
2024/04/06 05:56:14;;;;;;;2.93;1.77;;;13.40;99.90;;;;;;5075557;28;20450;-62
2024/04/06 05:58:39;;;;;;;7.50;1.90;;;13.40;99.90;;;;;;5076166;28;20443;-62
2024/04/06 06:01:07;;;;;;;5.33;1.87;;;13.40;99.90;;;;;;5076219;28;20443;-63
2024/04/06 06:03:33;;;;;;;2.40;2.00;;;13.40;99.90;;;;;;5075531;28;20289;-62
2024/04/06 06:06:00;;;;;;;3.73;2.57;;;13.40;99.90;;;;;;5075427;28;20951;-63
2024/04/06 06:08:26;;;;;;;2.10;1.90;;;13.40;99.90;;;;;;5075907;28;20209;-63
2024/04/06 06:10:52;;;;;;;2.23;2.00;;;13.50;99.90;;;;;;5077261;28;20865;-62
2024/04/06 06:13:20;;;;;;;3.30;2.10;;;13.60;99.90;;;;;;5075290;28;20238;-62
2024/04/06 06:15:47;;;;;;;3.30;2.07;;;13.70;99.90;;;;;;5075517;28;20451;-63
2024/04/06 06:18:12;;;;;;;8.13;2.33;;;13.80;99.90;;;;;;5075844;28;20443;-62
2024/04/06 06:20:39;;;;;;;2.90;2.00;;;14.00;99.90;;;;;;5075114;28;20967;-62
2024/04/06 06:23:05;;;;;;;4.10;2.00;;;14.00;99.90;;;;;;5074485;28;20236;-63
2024/04/06 06:25:32;;;;;;;3.13;2.13;;;14.20;99.90;;;;;;5074907;28;20453;-62
2024/04/06 06:27:58;;;;;;;4.27;2.17;;;14.30;99.90;;;;;;5075326;28;20705;-61
2024/04/06 06:30:26;;;;;;;3.27;1.63;;;14.40;99.90;;;;;;5076406;28;20438;-62
2024/04/06 06:32:52;;;;;;;2.97;1.77;;;14.50;99.90;;;;;;5075028;28;20485;-63
2024/04/06 06:35:19;;;;;;;2.80;1.50;;;14.60;99.90;;;;;;5074065;28;20443;-63
2024/04/06 06:37:45;;;;;;;3.33;1.80;;;14.70;99.90;;;;;;5074785;28;20440;-62
2024/04/06 06:40:12;;;;;;;3.27;1.77;;;14.80;99.90;;;;;;5075256;28;20439;-61
2024/04/06 06:42:38;;;;;;;1.80;1.43;;;14.90;99.90;;;;;;5074576;28;20455;-61
2024/04/06 06:45:06;;;;;;;7.90;2.67;;;15.10;99.90;;;;;;5074679;28;20963;-62
2024/04/06 06:47:33;;;;;;;1.87;1.60;;;15.20;99.90;;;;;;5075064;28;20201;-62
2024/04/06 06:50:00;;;;;;;2.03;1.53;;;15.40;99.90;;;;;;5076690;28;20443;-62
2024/04/06 06:52:26;;;;;;;2.10;1.30;;;15.50;99.90;;;;;;5074313;28;20478;-62
2024/04/06 06:54:52;;;;;;;2.53;1.43;;;15.70;99.90;;;;;;5074585;28;20434;-60
2024/04/06 06:57:18;;;;;;;3.40;1.40;;;15.90;99.90;;;;;;5074522;28;20446;-61
2024/04/06 06:59:45;;;;;;;3.67;1.50;;;16.00;99.90;;;;;;5074673;28;20447;-62
2024/04/06 07:02:11;;;;;;;1.70;1.30;;;16.20;99.90;;;;;;5074231;28;20311;-61
2024/04/06 07:04:39;;;;;;;1.80;1.50;;;16.30;99.90;;;;;;5074478;28;20522;-60
2024/04/06 07:07:05;;;;;;;2.20;1.30;;;16.40;99.90;;;;;;5074291;28;20283;-62
2024/04/06 07:09:32;;;;;;;4.00;1.60;;;16.50;99.90;;;;;;5074589;28;20527;-62
2024/04/06 07:11:58;;;;;;;2.13;1.47;;;16.60;99.90;;;;;;5074036;28;20221;-63
2024/04/06 07:14:25;;;;;;;1.63;1.23;;;16.70;99.90;;;;;;5074732;28;20447;-61
2024/04/06 07:16:51;;;;;;;3.70;1.80;;;16.70;99.90;;;;;;5074727;28;20239;-62
2024/04/06 07:19:18;;;;;;;4.83;1.90;;;16.80;99.90;;;;;;5073650;28;20887;-61
2024/04/06 07:21:45;;;;;;;1.33;1.07;;;16.80;99.90;;;;;;5074171;28;20410;-63
2024/04/06 07:24:12;;;;;;;3.30;1.40;;;16.90;99.90;;;;;;5074782;28;20500;-62
2024/04/06 07:26:38;;;;;;;3.33;1.27;;;16.90;99.90;;;;;;5074652;28;21003;-61
2024/04/06 07:29:05;;;;;;;4.57;1.37;;;17.00;99.90;;;;;;5074330;28;20435;-61
2024/04/06 07:31:31;;;;;;;1.80;1.37;;;17.00;99.90;;;;;;5073405;28;20694;-62
2024/04/06 07:33:57;;;;;;;1.20;1.00;;;17.10;99.90;;;;;;5074240;28;20474;-63
2024/04/06 07:36:23;;;;;;;2.93;1.30;;;17.20;99.90;;;;;;5074691;28;20197;-62
2024/04/06 07:38:52;;;;;;;1.97;1.13;;;17.20;99.90;;;;;;5075576;28;20824;-62
2024/04/06 07:41:18;;;;;;;2.27;1.37;;;17.30;99.90;;;;;;5076045;28;20232;-62
2024/04/06 07:43:45;;;;;;;2.27;1.73;;;17.40;99.90;;;;;;5074198;28;20427;-60
2024/04/06 07:46:10;;;;;;;2.10;1.40;;;17.50;99.90;;;;;;5073165;28;20450;-62
2024/04/06 07:48:37;;;;;;;2.70;1.70;;;17.50;99.90;;;;;;5073748;28;20439;-63
2024/04/06 07:51:04;;;;;;;5.13;1.40;;;17.60;99.90;;;;;;5073994;28;20197;-62
2024/04/06 07:53:30;;;;;;;1.63;0.90;;;17.70;99.90;;;;;;5073639;28;20484;-62
2024/04/06 07:55:57;;;;;;;2.50;1.37;;;17.80;99.90;;;;;;5073659;28;20441;-62
2024/04/06 07:58:24;;;;;;;2.53;1.43;;;18.00;99.90;;;;;;5073885;28;20443;-63
2024/04/06 08:00:51;;;;;;;1.20;1.07;;;18.10;99.90;;;;;;5073743;28;20497;-61
2024/04/06 08:03:18;;;;;;;2.57;1.30;;;18.30;99.90;;;;;;5074339;28;20459;-62
2024/04/06 08:05:48;;;;;;;1.40;0.93;;;18.50;99.90;;;;;;5073540;28;20479;-62
2024/04/06 08:08:15;;;;;;;1.90;1.27;;;18.70;99.90;;;;;;5074069;28;20415;-64
2024/04/06 08:10:42;;;;;;;1.80;0.93;;;19.00;99.90;;;;;;5074899;28;20477;-63
2024/04/06 08:13:13;;;;;;;3.50;1.50;;;19.20;99.90;;;;;;5074162;28;20514;-64
2024/04/06 08:15:39;;;;;;;1.83;0.93;;;19.30;99.90;;;;;;5074195;28;20443;-65
2024/04/06 08:18:05;;;;;;;1.20;0.90;;;19.40;99.90;;;;;;5074273;28;20435;-66
2024/04/06 08:20:31;;;;;;;3.77;1.60;;;19.50;99.90;;;;;;5074880;28;20322;-65
2024/04/06 08:22:58;;;;;;;1.50;1.20;;;19.40;99.90;;;;;;5075281;28;20910;-65
2024/04/06 08:25:24;;;;;;;1.47;1.30;;;19.20;99.90;;;;;;5074140;28;20787;-64
2024/04/06 08:27:51;;;;;;;2.47;1.67;;;19.20;99.90;;;;;;5074538;28;20447;-65
2024/04/06 08:30:18;;;;;;;6.27;1.27;;;19.20;99.90;;;;;;5076282;28;20209;-65
2024/04/06 08:32:45;;;;;;;1.90;1.23;;;19.30;99.90;;;;;;5074687;28;20486;-63
2024/04/06 08:35:12;;;;;;;2.27;1.50;;;19.30;99.90;;;;;;5076359;28;20541;-64
2024/04/06 08:37:39;;;;;;;1.97;1.30;;;19.50;99.90;;;;;;5076709;28;20446;-63
2024/04/06 08:40:06;;;;;;;1.70;1.10;;;19.70;99.90;;;;;;5075318;28;20442;-65
2024/04/06 08:42:40;;;;;;;3.80;1.37;;;19.90;99.90;;;;;;5075214;28;20530;-66
2024/04/06 08:45:07;;;;;;;3.20;1.30;;;20.00;99.50;;;;;;5077073;28;20411;-64
2024/04/06 08:47:35;;;;;;;3.33;1.50;;;20.00;99.00;;;;;;5074527;28;20439;-65
2024/04/06 08:50:05;;;;;;;5.00;1.37;;;20.10;98.90;;;;;;5076223;28;20618;-66
2024/04/06 08:52:34;;;;;;;5.73;1.20;;;20.10;98.60;;;;;;5074880;28;20562;-66
2024/04/06 08:55:01;;;;;;;2.37;1.70;;;20.10;98.40;;;;;;5075560;28;20435;-66
2024/04/06 08:57:27;;;;;;;2.97;1.20;;;20.10;98.30;;;;;;5074380;28;20812;-64
2024/04/06 08:59:56;;;;;;;2.53;1.70;;;20.20;98.00;;;;;;5077594;28;20449;-63
2024/04/06 09:02:23;;;;;;;2.03;1.30;;;20.30;97.70;;;;;;5079853;28;20516;-65
2024/04/06 09:04:50;;;;;;;2.20;1.10;;;20.30;97.40;;;;;;5078120;28;20443;-64
2024/04/06 09:07:17;;;;;;;1.73;1.30;;;20.40;97.00;;;;;;5081139;28;20827;-63
2024/04/06 09:09:43;;;;;;;2.00;1.17;;;20.40;96.60;;;;;;5079059;28;20439;-64
2024/04/06 09:12:11;;;;;;;2.13;1.00;;;20.50;96.30;;;;;;5078970;28;20558;-64
2024/04/06 09:14:38;;;;;;;1.67;1.10;;;20.50;96.00;;;;;;5077382;28;20963;-64
2024/04/06 09:17:05;;;;;;;1.73;1.10;;;20.50;95.90;;;;;;5077342;28;20439;-64
2024/04/06 09:19:31;;;;;;;2.20;1.50;;;20.60;95.70;;;;;;5077258;28;20815;-64
2024/04/06 09:21:59;;;;;;;2.87;1.33;;;20.60;95.30;;;;;;5078586;28;20465;-65
2024/04/06 09:24:26;;;;;;;1.83;1.30;;;20.60;94.90;;;;;;5078486;28;20207;-66
2024/04/06 09:27:03;;;;;;;3.20;1.17;;;20.70;94.60;;;;;;5079043;28;20443;-64
2024/04/06 09:29:29;;;;;;;1.13;1.00;;;20.70;94.00;;;;;;5078184;28;20847;-65
2024/04/06 09:32:01;;;;;;;3.23;1.47;;;20.50;94.00;;;;;;5077212;28;20545;-65
2024/04/06 09:34:27;;;;;;;1.87;1.10;;;20.50;94.60;;;;;;5078456;28;20209;-64
2024/04/06 09:37:02;;;;;;;1.97;0.90;;;20.50;94.30;;;;;;5077962;28;20443;-65
2024/04/06 09:39:31;;;;;;;2.13;1.07;;;20.60;94.30;;;;;;5076539;28;20238;-64
2024/04/06 09:41:59;;;;;;;3.50;1.10;;;20.70;93.80;;;;;;5076464;28;20512;-65
2024/04/06 09:44:26;;;;;;;2.20;0.90;;;20.80;93.40;;;;;;5077105;28;20447;-66
2024/04/06 09:46:53;;;;;;;2.03;1.07;;;20.80;93.10;;;;;;5077212;28;20443;-66
2024/04/06 09:49:22;;;;;;;1.80;1.20;;;20.80;92.90;;;;;;5077136;28;20445;-64
2024/04/06 09:51:49;;;;;;;2.17;1.20;;;20.80;92.40;;;;;;5077118;28;20547;-65
2024/04/06 09:54:16;;;;;;;3.20;1.00;;;20.80;92.20;;;;;;5076907;28;20482;-64
2024/04/06 09:56:43;;;;;;;1.40;1.10;;;20.80;91.80;;;;;;5076300;28;20944;-65
2024/04/06 09:59:19;;;;;;;1.40;1.20;;;20.90;91.80;;;;;;5075971;28;20440;-65
2024/04/06 10:01:46;;;;;;;2.40;1.50;;;21.10;91.50;;;;;;5076661;28;20484;-65
2024/04/06 10:04:22;;;;;;;2.87;1.37;;;21.30;91.10;;;;;;5076825;28;20455;-64
2024/04/06 10:06:51;;;;;;;2.50;1.40;;;21.50;90.50;;;;;;5076441;28;20909;-65
2024/04/06 10:09:19;;;;;;;2.20;1.43;;;21.60;90.00;;;;;;5076652;28;20447;-65
2024/04/06 10:11:46;;;;;;;2.53;1.40;;;21.70;88.50;;;;;;5077333;28;20490;-63
2024/04/06 10:14:12;;;;;;;2.53;1.80;;;21.70;86.90;;;;;;5078264;28;20505;-64
2024/04/06 10:16:39;;;;;;;2.23;1.43;;;21.80;86.00;;;;;;5077840;28;20944;-64
2024/04/06 10:19:06;;;;;;;1.73;1.13;;;21.80;84.50;;;;;;5078719;28;20774;-64
2024/04/06 10:21:34;;;;;;;2.57;1.50;;;21.80;84.10;;;;;;5077085;28;20874;-65
2024/04/06 10:24:02;;;;;;;2.37;1.27;;;21.90;85.00;;;;;;5076751;28;20435;-64
2024/04/06 10:26:34;;;;;;;2.60;1.77;;;22.00;83.80;;;;;;5077055;28;20443;-65
2024/04/06 10:29:01;;;;;;;1.50;1.30;;;22.20;83.10;;;;;;5076956;28;20499;-62
2024/04/06 10:31:28;;;;;;;3.03;1.90;;;22.30;81.50;;;;;;5075920;28;20435;-64
2024/04/06 10:33:54;;;;;;;4.00;1.53;;;22.40;81.40;;;;;;5075686;28;21000;-64
2024/04/06 10:36:21;;;;;;;2.97;1.40;;;22.50;79.70;;;;;;5077187;28;20446;-64
2024/04/06 10:38:47;;;;;;;3.20;1.63;;;22.50;79.40;;;;;;5081425;28;20526;-65
2024/04/06 10:41:15;;;;;;;2.70;1.50;;;22.70;79.20;;;;;;5078201;28;20459;-65
2024/04/06 10:43:42;;;;;;;5.37;1.47;;;22.80;78.30;;;;;;5076806;28;20193;-64
2024/04/06 10:46:11;;;;;;;2.90;1.80;;;22.80;77.50;;;;;;5077145;28;20451;-65
2024/04/06 10:48:39;;;;;;;4.10;1.50;;;22.90;76.70;;;;;;5077208;28;20435;-65
2024/04/06 10:51:06;;;;;;;3.00;1.60;;;23.00;76.30;;;;;;5076284;28;20447;-64
2024/04/06 10:53:33;;;;;;;3.87;1.60;;;23.10;76.10;;;;;;5076243;28;20501;-64
2024/04/06 10:56:00;;;;;;;2.50;1.77;;;23.00;75.50;;;;;;5076056;28;20445;-64
2024/04/06 10:58:26;;;;;;;1.93;1.40;;;23.00;75.30;;;;;;5076160;28;20504;-65
2024/04/06 11:00:54;;;;;;;2.53;1.43;;;23.10;75.10;;;;;;5075198;28;20443;-64
2024/04/06 11:03:21;;;;;;;1.57;1.30;;;23.10;74.50;;;;;;5077713;28;20463;-65
2024/04/06 11:05:48;;;;;;;2.03;1.47;;;23.10;74.10;;;;;;5077125;28;20443;-64
2024/04/06 11:08:14;;;;;;;2.47;1.70;;;23.00;74.10;;;;;;5075969;28;20530;-64
2024/04/06 11:10:41;;;;;;;1.87;1.63;;;22.90;74.20;;;;;;5076746;28;20829;-64
2024/04/06 11:13:07;;;;;;;4.03;1.77;;;22.80;74.30;;;;;;5075513;28;20494;-64
2024/04/06 11:15:34;;;;;;;3.37;1.80;;;22.80;74.70;;;;;;5075601;28;20474;-65
2024/04/06 11:18:02;;;;;;;2.70;2.03;;;22.80;74.80;;;;;;5075615;28;20444;-64
2024/04/06 11:20:32;;;;;;;2.27;2.00;;;22.90;74.70;;;;;;5075324;28;20450;-64
2024/04/06 11:22:58;;;;;;;4.60;2.67;;;23.10;74.30;;;;;;5075187;28;20473;-65
2024/04/06 11:25:26;;;;;;;3.00;1.97;;;23.10;73.40;;;;;;5075171;28;20446;-64
2024/04/06 11:27:53;;;;;;;3.33;1.60;;;23.30;73.10;;;;;;5075179;28;20469;-63
2024/04/06 11:30:21;;;;;;;3.73;1.53;;;23.40;72.30;;;;;;5077397;28;20502;-65
2024/04/06 11:32:48;;;;;;;3.23;2.10;;;23.70;71.70;;;;;;5079776;28;20546;-64
2024/04/06 11:35:17;;;;;;;1.77;1.40;;;24.00;70.40;;;;;;5078235;28;20972;-64
2024/04/06 11:37:44;;;;;;;1.83;1.63;;;24.20;69.20;;;;;;5078129;28;20440;-65
2024/04/06 11:40:11;;;;;;;1.87;1.67;;;24.40;68.00;;;;;;5078236;28;20453;-65
2024/04/06 11:42:37;;;;;;;3.70;1.80;;;24.40;67.40;;;;;;5076844;28;20461;-66
2024/04/06 11:45:05;;;;;;;2.10;1.40;;;24.50;67.10;;;;;;5077678;28;20518;-65
2024/04/06 11:47:31;;;;;;;4.67;1.90;;;24.50;66.70;;;;;;5076417;28;20450;-65
2024/04/06 11:49:59;;;;;;;3.63;1.90;;;24.50;66.40;;;;;;5080124;28;20439;-65
2024/04/06 11:52:27;;;;;;;6.03;1.70;;;24.50;66.20;;;;;;5078750;28;20884;-64
2024/04/06 11:54:54;;;;;;;2.73;1.50;;;24.50;66.70;;;;;;5077935;28;20501;-65
2024/04/06 11:57:20;;;;;;;2.10;1.70;;;24.50;65.70;;;;;;5076297;28;20443;-65
2024/04/06 11:59:47;;;;;;;2.17;1.63;;;24.40;65.10;;;;;;5081081;28;20526;-65
2024/04/06 12:02:13;;;;;;;1.70;1.60;;;24.30;65.00;;;;;;5077230;28;20244;-65
2024/04/06 12:04:39;;;;;;;3.90;2.20;;;24.20;65.10;;;;;;5075640;28;20435;-65
2024/04/06 12:07:06;;;;;;;2.60;1.40;;;24.10;65.20;;;;;;5076647;28;20197;-67
2024/04/06 12:09:34;;;;;;;4.87;1.70;;;24.10;65.30;;;;;;5077383;28;20530;-65
2024/04/06 12:12:00;;;;;;;3.60;1.87;;;24.10;65.20;;;;;;5074060;28;20481;-66
2024/04/06 12:14:27;;;;;;;3.10;1.43;;;24.20;65.00;;;;;;5076236;28;20544;-67
2024/04/06 12:16:53;;;;;;;5.00;1.97;;;24.30;64.70;;;;;;5075044;28;20201;-65
2024/04/06 12:19:20;;;;;;;2.60;1.40;;;24.40;64.00;;;;;;5075888;28;20446;-65
2024/04/06 12:21:46;;;;;;;3.63;1.47;;;24.60;63.50;;;;;;5074187;28;20984;-65
2024/04/06 12:24:12;;;;;;;2.33;1.50;;;24.80;62.40;;;;;;5073943;28;20443;-67
2024/04/06 12:26:40;;;;;;;1.50;1.40;;;25.00;61.70;;;;;;5074204;28;20200;-66
2024/04/06 12:29:07;;;;;;;3.97;1.93;;;25.20;60.90;;;;;;5074083;28;20537;-65
2024/04/06 12:31:33;;;;;;;3.20;1.73;;;25.50;60.00;;;;;;5075098;28;20518;-66
2024/04/06 12:34:00;;;;;;;2.93;1.70;;;25.70;59.40;;;;;;5075998;28;20470;-67
2024/04/06 12:36:26;;;;;;;2.57;1.57;;;25.80;58.70;;;;;;5077665;28;20201;-67
2024/04/06 12:38:54;;;;;;;1.87;1.27;;;25.90;58.30;;;;;;5077843;28;20439;-65
2024/04/06 12:41:20;;;;;;;2.50;1.53;;;26.00;57.90;;;;;;5077833;28;20443;-64
2024/04/06 12:43:48;;;;;;;1.60;1.40;;;25.90;57.70;;;;;;5079565;28;20519;-64
2024/04/06 12:46:14;;;;;;;2.30;1.67;;;25.80;57.50;;;;;;5082424;28;20262;-65